Time;durP1;ratioP1;P1;durP2;ratioP2;P2;SDS_P1;SDS_P2;PMS_P1;PMS_P2;Temp;Humidity;BMP_temperature;BMP_pressure;BME280_temperature;BME280_humidity;BME280_pressure;Samples;Min_cycle;Max_cycle;Signal;HPM_P1;HPM_P2
2023/12/24 00:01:01;;;;;;;0.70;0.70;;;8.20;1.00;;;;;;5036823;28;20184;-82
2023/12/24 00:03:27;;;;;;;0.70;0.70;;;8.30;1.00;;;;;;5037797;28;20187;-83
2023/12/24 00:05:53;;;;;;;0.70;0.70;;;8.20;1.00;;;;;;5029194;28;20207;-82
2023/12/24 00:08:18;;;;;;;0.70;0.70;;;8.30;1.00;;;;;;5017953;28;20228;-83
2023/12/24 00:10:44;;;;;;;0.77;0.77;;;8.80;1.00;;;;;;5018278;28;20250;-83
2023/12/24 00:13:09;;;;;;;0.70;0.70;;;8.30;99.90;;;;;;5017974;28;20180;-82
2023/12/24 00:15:35;;;;;;;0.70;0.70;;;8.30;1.00;;;;;;5017882;28;20188;-81
2023/12/24 00:18:00;;;;;;;0.73;0.73;;;8.30;1.00;;;;;;5018160;28;20253;-82
2023/12/24 00:20:26;;;;;;;0.70;0.70;;;8.40;1.00;;;;;;5017988;28;20177;-83
2023/12/24 00:23:08;;;;;;;0.70;0.70;;;8.40;1.00;;;;;;5017862;28;20263;-83
2023/12/24 00:25:35;;;;;;;0.70;0.70;;;8.40;1.00;;;;;;5018065;28;20299;-83
2023/12/24 00:28:00;;;;;;;0.70;0.70;;;8.40;1.00;;;;;;5017281;28;20215;-83
2023/12/24 00:30:26;;;;;;;0.70;0.70;;;8.40;1.00;;;;;;5032352;28;20783;-81
2023/12/24 00:32:59;;;;;;;0.60;0.60;;;8.40;1.00;;;;;;5052917;28;20191;-81
2023/12/24 00:35:26;;;;;;;0.70;0.70;;;8.30;1.00;;;;;;5051903;28;20243;-81
2023/12/24 00:37:52;;;;;;;0.70;0.70;;;8.30;1.00;;;;;;5043605;28;20184;-83
2023/12/24 00:40:18;;;;;;;0.70;0.70;;;8.30;1.00;;;;;;5036155;28;20219;-81
2023/12/24 00:42:45;;;;;;;0.70;0.70;;;8.50;1.00;;;;;;5033326;28;20180;-83
2023/12/24 00:45:11;;;;;;;0.70;0.70;;;8.30;99.90;;;;;;5035175;28;20179;-82
2023/12/24 00:47:38;;;;;;;0.70;0.70;;;8.20;99.90;;;;;;5034648;28;20204;-82
2023/12/24 00:50:07;;;;;;;0.70;0.70;;;8.30;99.90;;;;;;5034765;28;20182;-82
2023/12/24 00:52:34;;;;;;;0.80;0.80;;;8.20;1.00;;;;;;5034653;28;20172;-82
2023/12/24 00:54:59;;;;;;;0.80;0.80;;;8.20;1.00;;;;;;5032711;28;20175;-82
2023/12/24 00:57:25;;;;;;;0.63;0.63;;;8.20;1.00;;;;;;5017149;28;20192;-82
2023/12/24 00:59:51;;;;;;;0.70;0.70;;;8.20;1.00;;;;;;5015494;28;20226;-84
2023/12/24 01:02:16;;;;;;;0.70;0.70;;;8.10;99.90;;;;;;5014778;28;20282;-84
2023/12/24 01:04:42;;;;;;;0.90;0.90;;;8.10;99.90;;;;;;5014526;28;20184;-83
2023/12/24 01:07:07;;;;;;;0.77;0.77;;;8.10;1.00;;;;;;5034154;28;20643;-83
2023/12/24 01:09:35;;;;;;;0.80;0.80;;;8.00;1.00;;;;;;5042546;28;20734;-83
2023/12/24 01:12:01;;;;;;;0.80;0.80;;;8.00;1.00;;;;;;5053886;28;20648;-82
2023/12/24 01:14:26;;;;;;;0.70;0.70;;;8.00;1.00;;;;;;5053193;28;20175;-81
2023/12/24 01:16:52;;;;;;;0.70;0.70;;;8.10;1.00;;;;;;5039742;28;20210;-83
2023/12/24 01:19:18;;;;;;;0.70;0.70;;;8.10;1.00;;;;;;5033842;28;20176;-83
2023/12/24 01:21:43;;;;;;;0.70;0.70;;;8.10;99.90;;;;;;5033722;28;20255;-81
2023/12/24 01:24:09;;;;;;;0.77;0.77;;;8.10;1.00;;;;;;5033162;28;20179;-83
2023/12/24 01:26:36;;;;;;;0.77;0.77;;;8.10;99.90;;;;;;5018881;28;20218;-82
2023/12/24 01:29:02;;;;;;;0.67;0.67;;;8.10;1.00;;;;;;5023270;28;20249;-83
2023/12/24 01:31:28;;;;;;;0.70;0.70;;;8.10;99.90;;;;;;5032678;28;20175;-83
2023/12/24 01:33:54;;;;;;;0.70;0.70;;;8.20;99.90;;;;;;5044990;28;20176;-82
2023/12/24 01:36:20;;;;;;;0.80;0.80;;;8.20;99.90;;;;;;5052602;28;20207;-84
2023/12/24 01:38:48;;;;;;;0.70;0.70;;;8.10;1.00;;;;;;5052175;28;20183;-81
2023/12/24 01:41:13;;;;;;;0.80;0.80;;;8.20;99.90;;;;;;5052247;28;20176;-81
2023/12/24 01:43:43;;;;;;;0.80;0.80;;;8.20;99.90;;;;;;5051632;28;20182;-81
2023/12/24 01:46:09;;;;;;;0.70;0.70;;;8.20;99.90;;;;;;5051488;28;20230;-80
2023/12/24 01:48:36;;;;;;;0.80;0.80;;;8.30;1.00;;;;;;5071559;28;20274;-80
2023/12/24 01:51:02;;;;;;;0.60;0.60;;;8.30;1.00;;;;;;5062182;28;20171;-81
2023/12/24 01:53:29;;;;;;;0.73;0.73;;;8.30;99.90;;;;;;5057322;28;20195;-81
2023/12/24 01:55:55;;;;;;;0.80;0.80;;;8.30;1.00;;;;;;5056041;28;20241;-82
2023/12/24 01:58:20;;;;;;;0.70;0.70;;;8.30;1.00;;;;;;5054377;28;20266;-80
2023/12/24 02:00:47;;;;;;;0.70;0.70;;;8.30;1.00;;;;;;5054654;28;20198;-81
2023/12/24 02:03:13;;;;;;;0.80;0.80;;;8.30;1.00;;;;;;5055018;28;20183;-80
2023/12/24 02:05:40;;;;;;;0.80;0.80;;;8.30;1.00;;;;;;5048384;28;20239;-82
2023/12/24 02:08:07;;;;;;;0.80;0.80;;;8.30;1.00;;;;;;5044584;28;20207;-82
2023/12/24 02:10:33;;;;;;;0.80;0.80;;;8.30;1.00;;;;;;5066314;28;20183;-77
2023/12/24 02:12:59;;;;;;;0.73;0.73;;;8.30;1.00;;;;;;5066432;28;20274;-81
2023/12/24 02:15:25;;;;;;;0.70;0.70;;;8.30;1.00;;;;;;5057877;28;20184;-81
2023/12/24 02:17:51;;;;;;;0.80;0.80;;;8.30;99.90;;;;;;5059813;28;20664;-82
2023/12/24 02:20:24;;;;;;;0.80;0.80;;;8.80;99.90;;;;;;5059762;28;20226;-81
2023/12/24 02:22:50;;;;;;;0.70;0.70;;;8.30;99.90;;;;;;5060644;28;20193;-81
2023/12/24 02:25:16;;;;;;;0.70;0.70;;;8.30;99.90;;;;;;5059248;28;20652;-82
2023/12/24 02:27:55;;;;;;;0.80;0.80;;;8.30;1.00;;;;;;5059369;28;20777;-83
2023/12/24 02:30:31;;;;;;;0.70;0.70;;;8.40;1.00;;;;;;5057151;28;20585;-81
2023/12/24 02:32:57;;;;;;;0.70;0.70;;;8.30;1.00;;;;;;5058759;28;20179;-80
2023/12/24 02:35:27;;;;;;;0.80;0.80;;;8.30;1.00;;;;;;5059306;28;20180;-82
2023/12/24 02:37:53;;;;;;;0.77;0.77;;;8.30;1.00;;;;;;5059352;28;20190;-83
2023/12/24 02:40:18;;;;;;;0.73;0.73;;;8.30;1.00;;;;;;5058553;28;20171;-80
2023/12/24 02:42:44;;;;;;;0.70;0.70;;;8.30;99.90;;;;;;5058836;28;20286;-82
2023/12/24 02:45:10;;;;;;;0.70;0.70;;;8.30;1.00;;;;;;5059517;28;20178;-81
2023/12/24 02:47:37;;;;;;;0.70;0.70;;;8.30;1.00;;;;;;5058339;28;20345;-82
2023/12/24 02:50:03;;;;;;;0.70;0.70;;;8.30;1.00;;;;;;5059281;28;20164;-80
2023/12/24 02:52:28;;;;;;;0.73;0.73;;;8.30;1.00;;;;;;5058605;28;20558;-79
2023/12/24 02:54:55;;;;;;;0.80;0.80;;;8.30;99.90;;;;;;5057823;28;20171;-82
2023/12/24 02:57:21;;;;;;;0.70;0.70;;;8.70;99.90;;;;;;5057598;28;20199;-81
2023/12/24 02:59:47;;;;;;;0.70;0.70;;;8.30;1.00;;;;;;5056985;28;20198;-83
2023/12/24 03:02:13;;;;;;;0.70;0.70;;;8.30;1.00;;;;;;5058478;28;20197;-80
2023/12/24 03:04:38;;;;;;;0.80;0.80;;;8.30;1.00;;;;;;5058071;28;20190;-80
2023/12/24 03:07:04;;;;;;;0.70;0.70;;;8.30;1.00;;;;;;5057262;28;20208;-82
2023/12/24 03:09:30;;;;;;;0.70;0.70;;;8.30;1.00;;;;;;5056486;28;20289;-85
2023/12/24 03:11:55;;;;;;;0.80;0.80;;;8.30;99.90;;;;;;5058403;28;20225;-84
2023/12/24 03:14:21;;;;;;;0.77;0.77;;;8.30;99.90;;;;;;5057764;28;20175;-83
2023/12/24 03:16:47;;;;;;;0.80;0.80;;;8.30;99.90;;;;;;5057405;28;20194;-83
2023/12/24 03:19:12;;;;;;;0.80;0.80;;;8.30;1.00;;;;;;5057627;28;20171;-83
2023/12/24 03:21:42;;;;;;;0.70;0.70;;;8.30;1.00;;;;;;5057697;28;20176;-84
2023/12/24 03:24:10;;;;;;;0.70;0.70;;;8.30;1.00;;;;;;5058198;28;20595;-83
2023/12/24 03:26:35;;;;;;;0.70;0.70;;;8.30;1.00;;;;;;5056803;28;20203;-83
2023/12/24 03:29:01;;;;;;;0.70;0.70;;;8.30;1.00;;;;;;5057073;28;20214;-83
2023/12/24 03:31:27;;;;;;;0.70;0.70;;;8.30;99.90;;;;;;5057723;28;20179;-82
2023/12/24 03:33:53;;;;;;;0.60;0.60;;;8.30;1.00;;;;;;5057469;28;20182;-83
2023/12/24 03:36:18;;;;;;;0.70;0.70;;;8.30;1.00;;;;;;5056432;28;20191;-83
2023/12/24 03:38:44;;;;;;;0.80;0.80;;;8.30;99.90;;;;;;5057868;28;20675;-84
2023/12/24 03:41:10;;;;;;;0.70;0.70;;;8.30;99.90;;;;;;5057577;28;20202;-85
2023/12/24 03:43:36;;;;;;;0.80;0.80;;;8.30;99.90;;;;;;5057248;28;20171;-82
2023/12/24 03:46:02;;;;;;;0.70;0.70;;;8.30;99.90;;;;;;5056616;28;20190;-84
2023/12/24 03:48:32;;;;;;;0.80;0.80;;;8.30;99.90;;;;;;5057282;28;20621;-84
2023/12/24 03:50:58;;;;;;;0.70;0.70;;;8.30;1.00;;;;;;5055854;28;20168;-83
2023/12/24 03:53:24;;;;;;;0.70;0.70;;;8.40;1.00;;;;;;5056475;28;20198;-85
2023/12/24 03:55:49;;;;;;;0.60;0.60;;;8.30;1.00;;;;;;5056349;28;20191;-83
2023/12/24 03:58:15;;;;;;;0.70;0.70;;;8.40;1.00;;;;;;5064685;28;20175;-78
2023/12/24 04:00:40;;;;;;;0.60;0.60;;;8.30;1.00;;;;;;5067478;28;20179;-84
2023/12/24 04:03:06;;;;;;;0.70;0.70;;;8.30;1.00;;;;;;5058807;28;20233;-84
2023/12/24 04:05:31;;;;;;;0.70;0.70;;;8.30;99.90;;;;;;5058865;28;20206;-84
2023/12/24 04:07:57;;;;;;;0.70;0.70;;;8.30;1.00;;;;;;5060221;28;20207;-82
2023/12/24 04:10:23;;;;;;;0.70;0.70;;;8.30;1.00;;;;;;5059645;28;20247;-83
2023/12/24 04:12:48;;;;;;;0.80;0.80;;;8.30;1.00;;;;;;5059562;28;20185;-84
2023/12/24 04:15:14;;;;;;;0.70;0.70;;;8.30;1.00;;;;;;5058105;28;20175;-84
2023/12/24 04:17:39;;;;;;;0.77;0.77;;;8.30;99.90;;;;;;5057644;28;20206;-81
2023/12/24 04:20:05;;;;;;;0.60;0.60;;;8.30;99.90;;;;;;5056715;28;20180;-84
2023/12/24 04:22:32;;;;;;;0.70;0.70;;;8.20;99.90;;;;;;5057565;28;20175;-82
2023/12/24 04:24:58;;;;;;;0.70;0.70;;;8.20;1.00;;;;;;5058999;28;20262;-81
2023/12/24 04:27:25;;;;;;;0.70;0.70;;;8.20;1.00;;;;;;5066640;28;20210;-82
2023/12/24 04:29:51;;;;;;;0.70;0.70;;;8.30;1.00;;;;;;5065176;28;20186;-82
2023/12/24 04:32:18;;;;;;;0.70;0.70;;;8.30;1.00;;;;;;5073633;28;20197;-81
2023/12/24 04:34:44;;;;;;;0.70;0.70;;;8.30;1.00;;;;;;5060213;28;20179;-84
2023/12/24 04:37:10;;;;;;;0.80;0.80;;;8.40;99.90;;;;;;5059281;28;20278;-83
2023/12/24 04:39:36;;;;;;;0.70;0.70;;;8.40;99.90;;;;;;5059078;28;20167;-83
2023/12/24 04:42:01;;;;;;;0.60;0.60;;;8.40;43.90;;;;;;5065356;28;20190;-81
2023/12/24 04:44:27;;;;;;;0.60;0.60;;;8.40;99.90;;;;;;5073789;28;20523;-83
2023/12/24 04:46:52;;;;;;;0.70;0.70;;;8.40;99.90;;;;;;5073210;28;20195;-82
2023/12/24 04:49:18;;;;;;;0.77;0.77;;;8.40;99.90;;;;;;5059042;28;20214;-84
2023/12/24 04:51:44;;;;;;;0.80;0.80;;;8.40;1.00;;;;;;5058008;28;20167;-82
2023/12/24 04:54:09;;;;;;;0.80;0.80;;;8.30;1.00;;;;;;5058191;28;20180;-84
2023/12/24 04:56:35;;;;;;;0.60;0.60;;;8.30;1.00;;;;;;5055104;28;20198;-83
2023/12/24 04:59:01;;;;;;;0.70;0.70;;;8.40;1.00;;;;;;5057758;28;20541;-84
2023/12/24 05:01:26;;;;;;;0.70;0.70;;;8.40;1.00;;;;;;5058140;28;20183;-84
2023/12/24 05:03:52;;;;;;;0.70;0.70;;;8.40;1.00;;;;;;5067245;28;20163;-79
2023/12/24 05:06:18;;;;;;;0.70;0.70;;;8.40;97.30;;;;;;5075648;28;20227;-81
2023/12/24 05:08:43;;;;;;;0.70;0.70;;;8.30;99.90;;;;;;5076163;28;20202;-81
2023/12/24 05:11:09;;;;;;;0.70;0.70;;;8.20;39.40;;;;;;5076451;28;20171;-79
2023/12/24 05:13:35;;;;;;;0.80;0.80;;;8.20;1.00;;;;;;5076272;28;20171;-78
2023/12/24 05:16:05;;;;;;;0.60;0.60;;;8.10;1.00;;;;;;5066249;28;20253;-84
2023/12/24 05:18:31;;;;;;;0.70;0.70;;;8.00;99.90;;;;;;5058245;28;20175;-84
2023/12/24 05:20:58;;;;;;;0.70;0.70;;;8.00;1.00;;;;;;5058101;28;20183;-84
2023/12/24 05:23:25;;;;;;;0.70;0.70;;;8.00;1.00;;;;;;5058081;28;20182;-85
2023/12/24 05:25:50;;;;;;;0.80;0.80;;;8.00;1.00;;;;;;5057451;28;20195;-84
2023/12/24 05:28:17;;;;;;;0.73;0.73;;;8.00;1.00;;;;;;5057862;28;20203;-81
2023/12/24 05:30:46;;;;;;;0.60;0.60;;;7.90;1.00;;;;;;5058288;28;20179;-83
2023/12/24 05:33:12;;;;;;;0.80;0.80;;;7.90;1.00;;;;;;5060549;28;20239;-82
2023/12/24 05:35:37;;;;;;;0.70;0.70;;;7.90;1.00;;;;;;5060823;28;20195;-82
2023/12/24 05:38:04;;;;;;;0.80;0.80;;;7.90;99.90;;;;;;5061400;28;20171;-82
2023/12/24 05:40:30;;;;;;;0.60;0.60;;;7.90;1.00;;;;;;5061531;28;20189;-83
2023/12/24 05:42:55;;;;;;;0.70;0.70;;;7.90;1.00;;;;;;5061873;28;20715;-82
2023/12/24 05:45:21;;;;;;;0.70;0.70;;;7.90;98.40;;;;;;5060574;28;20167;-82
2023/12/24 05:47:47;;;;;;;0.70;0.70;;;7.90;99.90;;;;;;5061015;28;20256;-82
2023/12/24 05:50:12;;;;;;;0.70;0.70;;;7.90;99.90;;;;;;5060518;28;20183;-80
2023/12/24 05:52:40;;;;;;;0.70;0.70;;;7.90;98.20;;;;;;5059224;28;20178;-83
2023/12/24 05:55:07;;;;;;;0.70;0.70;;;7.90;45.70;;;;;;5060364;28;20175;-82
2023/12/24 05:57:32;;;;;;;0.70;0.70;;;8.00;1.00;;;;;;5060389;28;20191;-83
2023/12/24 05:59:58;;;;;;;0.80;0.80;;;8.00;91.30;;;;;;5054924;28;20178;-80
2023/12/24 06:02:24;;;;;;;0.70;0.70;;;8.00;99.90;;;;;;5054236;28;20187;-79
2023/12/24 06:04:50;;;;;;;0.80;0.80;;;8.00;1.00;;;;;;5053393;28;20187;-82
2023/12/24 06:07:15;;;;;;;0.70;0.70;;;8.00;98.60;;;;;;5054843;28;20199;-80
2023/12/24 06:09:41;;;;;;;0.70;0.70;;;8.00;28.90;;;;;;5054233;28;20210;-81
2023/12/24 06:12:07;;;;;;;0.70;0.70;;;8.00;99.90;;;;;;5054361;28;20237;-82
2023/12/24 06:14:32;;;;;;;0.87;0.87;;;8.10;43.20;;;;;;5054326;28;20657;-79
2023/12/24 06:16:58;;;;;;;0.70;0.70;;;8.10;1.00;;;;;;5058377;28;20217;-80
2023/12/24 06:19:24;;;;;;;0.70;0.70;;;8.10;46.40;;;;;;5079541;28;20159;-83
2023/12/24 06:21:50;;;;;;;0.83;0.83;;;8.10;99.90;;;;;;5060918;28;20228;-82
2023/12/24 06:24:20;;;;;;;0.70;0.70;;;8.10;99.90;;;;;;5060900;28;20202;-83
2023/12/24 06:26:49;;;;;;;0.60;0.60;;;8.10;99.90;;;;;;5059127;28;20198;-83
2023/12/24 06:29:15;;;;;;;0.80;0.80;;;8.10;99.90;;;;;;5059175;28;20211;-81
2023/12/24 06:31:40;;;;;;;0.80;0.80;;;8.20;99.90;;;;;;5059680;28;20189;-80
2023/12/24 06:34:06;;;;;;;0.70;0.70;;;8.10;1.00;;;;;;5059831;28;20621;-82
2023/12/24 06:36:32;;;;;;;0.60;0.60;;;8.10;1.00;;;;;;5068008;28;20289;-81
2023/12/24 06:38:57;;;;;;;0.70;0.70;;;8.20;1.00;;;;;;5071066;28;20186;-82
2023/12/24 06:41:23;;;;;;;0.80;0.80;;;8.10;1.00;;;;;;5069345;28;20167;-79
2023/12/24 06:43:49;;;;;;;0.70;0.70;;;8.20;1.00;;;;;;5053321;28;20168;-83
2023/12/24 06:46:15;;;;;;;0.80;0.80;;;8.20;1.00;;;;;;5044794;28;20673;-82
2023/12/24 06:48:41;;;;;;;0.70;0.70;;;8.20;1.00;;;;;;5036862;28;20250;-82
2023/12/24 06:51:07;;;;;;;0.80;0.80;;;8.20;1.00;;;;;;5035210;28;20186;-89
2023/12/24 06:53:33;;;;;;;0.60;0.60;;;8.30;1.00;;;;;;5032364;28;20726;-85
2023/12/24 06:55:58;;;;;;;0.70;0.70;;;8.20;1.00;;;;;;5037335;28;20681;-85
2023/12/24 06:58:24;;;;;;;0.70;0.70;;;8.20;1.00;;;;;;5031510;28;20258;-84
2023/12/24 07:00:49;;;;;;;0.60;0.60;;;8.20;1.00;;;;;;5036193;28;20184;-84
2023/12/24 07:03:17;;;;;;;0.70;0.70;;;8.20;1.00;;;;;;5034843;28;20271;-82
2023/12/24 07:05:43;;;;;;;0.80;0.80;;;8.20;1.00;;;;;;5028577;28;20896;-84
2023/12/24 07:08:09;;;;;;;0.67;0.67;;;8.20;1.00;;;;;;5029148;28;20204;-84
2023/12/24 07:10:35;;;;;;;0.80;0.80;;;8.30;1.00;;;;;;5040703;28;20171;-83
2023/12/24 07:13:01;;;;;;;0.80;0.80;;;8.30;1.00;;;;;;5047510;28;20183;-80
2023/12/24 07:15:26;;;;;;;0.80;0.80;;;8.30;1.00;;;;;;5046765;28;20176;-84
2023/12/24 07:17:52;;;;;;;0.70;0.70;;;8.30;1.00;;;;;;5038194;28;20180;-82
2023/12/24 07:20:18;;;;;;;0.80;0.80;;;8.30;1.00;;;;;;5033954;28;20180;-87
2023/12/24 07:22:44;;;;;;;0.70;0.70;;;8.40;1.00;;;;;;5036174;28;20186;-85
2023/12/24 07:25:10;;;;;;;0.80;0.80;;;8.40;1.00;;;;;;5035637;28;20176;-85
2023/12/24 07:27:36;;;;;;;0.70;0.70;;;8.50;99.90;;;;;;5031988;28;20196;-83
2023/12/24 07:30:02;;;;;;;0.80;0.80;;;8.50;99.90;;;;;;5026246;28;20176;-85
2023/12/24 07:32:27;;;;;;;0.77;0.77;;;8.50;99.90;;;;;;5023815;28;20173;-85
2023/12/24 07:34:55;;;;;;;0.73;0.73;;;8.50;99.90;;;;;;5025197;28;20168;-86
2023/12/24 07:37:21;;;;;;;0.70;0.70;;;8.50;99.90;;;;;;5022353;28;20204;-87
2023/12/24 07:39:46;;;;;;;0.67;0.67;;;8.60;99.90;;;;;;5023024;28;20306;-85
2023/12/24 07:42:12;;;;;;;0.80;0.80;;;8.60;99.90;;;;;;5022316;28;20191;-85
2023/12/24 07:44:37;;;;;;;0.80;0.80;;;8.70;99.90;;;;;;5031073;28;20192;-85
2023/12/24 07:47:04;;;;;;;0.80;0.80;;;8.70;99.90;;;;;;5024269;28;20214;-84
2023/12/24 07:49:29;;;;;;;0.70;0.70;;;8.70;99.90;;;;;;5025011;28;20215;-83
2023/12/24 07:51:55;;;;;;;0.70;0.70;;;8.70;99.90;;;;;;5025957;28;20185;-87
2023/12/24 07:54:20;;;;;;;0.80;0.80;;;8.70;1.00;;;;;;5031185;28;20200;-86
2023/12/24 07:56:46;;;;;;;0.67;0.67;;;8.70;1.00;;;;;;5023054;28;20286;-84
2023/12/24 07:59:11;;;;;;;0.70;0.70;;;8.70;1.00;;;;;;5021608;28;20169;-84
2023/12/24 08:01:40;;;;;;;0.60;0.60;;;8.90;1.00;;;;;;5028942;28;20582;-85
2023/12/24 08:04:06;;;;;;;0.80;0.80;;;8.80;1.00;;;;;;5019634;28;20208;-83
2023/12/24 08:06:32;;;;;;;0.70;0.70;;;8.80;1.00;;;;;;5026757;28;20188;-84
2023/12/24 08:08:58;;;;;;;0.80;0.80;;;8.90;1.00;;;;;;5023783;28;20199;-81
2023/12/24 08:11:24;;;;;;;0.70;0.70;;;8.90;99.90;;;;;;5022483;28;20228;-84
2023/12/24 08:13:49;;;;;;;0.73;0.73;;;9.00;1.00;;;;;;5021189;28;20188;-81
2023/12/24 08:16:15;;;;;;;0.70;0.70;;;9.20;99.90;;;;;;5029035;28;20820;-82
2023/12/24 08:18:40;;;;;;;0.80;0.80;;;9.20;1.00;;;;;;5023903;28;20169;-86
2023/12/24 08:21:10;;;;;;;0.77;0.77;;;9.10;41.60;;;;;;5023688;28;20172;-87
2023/12/24 08:23:37;;;;;;;0.70;0.70;;;9.10;1.00;;;;;;5030780;28;20173;-83
2023/12/24 08:26:04;;;;;;;0.70;0.70;;;9.10;1.00;;;;;;5027964;28;20196;-85
2023/12/24 08:28:29;;;;;;;0.70;0.70;;;9.10;1.00;;;;;;5023837;28;20524;-87
2023/12/24 08:30:55;;;;;;;0.53;0.53;;;9.10;1.00;;;;;;5024510;28;20202;-86
2023/12/24 08:33:21;;;;;;;0.60;0.60;;;9.10;1.00;;;;;;5022901;28;20184;-85
2023/12/24 08:35:46;;;;;;;0.80;0.80;;;9.10;99.90;;;;;;5021523;28;20196;-83
2023/12/24 08:38:12;;;;;;;0.70;0.70;;;9.10;99.90;;;;;;5029557;28;20184;-83
2023/12/24 08:40:37;;;;;;;0.70;0.70;;;9.20;99.90;;;;;;5024386;28;20252;-84
2023/12/24 08:43:03;;;;;;;0.80;0.80;;;9.20;99.90;;;;;;5023725;28;20176;-85
2023/12/24 08:45:29;;;;;;;0.70;0.70;;;9.20;99.90;;;;;;5024826;28;20649;-84
2023/12/24 08:47:55;;;;;;;0.70;0.70;;;9.30;99.90;;;;;;5025973;28;20314;-84
2023/12/24 08:50:23;;;;;;;0.70;0.70;;;9.30;99.90;;;;;;5024590;28;20230;-84
2023/12/24 08:52:49;;;;;;;0.73;0.73;;;9.30;99.90;;;;;;5027794;28;20179;-87
2023/12/24 08:55:15;;;;;;;0.70;0.70;;;9.30;99.90;;;;;;5023208;28;20172;-85
2023/12/24 08:57:41;;;;;;;0.70;0.70;;;9.30;99.90;;;;;;5025787;28;20231;-86
2023/12/24 09:00:11;;;;;;;0.70;0.70;;;9.30;99.90;;;;;;5029864;28;20188;-85
2023/12/24 09:02:38;;;;;;;0.77;0.77;;;9.30;99.90;;;;;;5029836;28;20192;-85
2023/12/24 09:05:07;;;;;;;0.67;0.67;;;9.40;99.90;;;;;;5043725;28;20160;-83
2023/12/24 09:07:33;;;;;;;0.73;0.73;;;9.40;99.90;;;;;;5051940;28;20218;-81
2023/12/24 09:09:58;;;;;;;0.80;0.80;;;9.40;99.90;;;;;;5043017;28;20172;-85
2023/12/24 09:12:24;;;;;;;0.60;0.60;;;9.80;1.00;;;;;;5028118;28;20580;-85
2023/12/24 09:14:49;;;;;;;0.60;0.60;;;9.50;1.00;;;;;;5031204;28;20552;-84
2023/12/24 09:17:15;;;;;;;0.80;0.80;;;9.60;1.00;;;;;;5029920;28;20194;-84
2023/12/24 09:19:40;;;;;;;0.60;0.60;;;9.50;1.00;;;;;;5044967;28;20185;-81
2023/12/24 09:22:06;;;;;;;0.70;0.70;;;9.60;99.90;;;;;;5051094;28;20175;-81
2023/12/24 09:24:32;;;;;;;0.60;0.60;;;9.60;99.90;;;;;;5050895;28;20164;-81
2023/12/24 09:26:57;;;;;;;0.80;0.80;;;9.60;1.00;;;;;;5050243;28;20206;-81
2023/12/24 09:29:23;;;;;;;0.60;0.60;;;9.60;99.90;;;;;;5048079;28;20212;-83
2023/12/24 09:31:48;;;;;;;0.80;0.80;;;9.50;99.90;;;;;;5030475;28;20226;-81
2023/12/24 09:34:14;;;;;;;0.70;0.70;;;9.50;1.00;;;;;;5038347;28;20176;-90
2023/12/24 09:36:40;;;;;;;0.70;0.70;;;9.40;1.00;;;;;;5035651;28;20234;-85
2023/12/24 09:39:06;;;;;;;0.70;0.70;;;9.40;1.00;;;;;;5038602;28;20175;-82
2023/12/24 09:41:31;;;;;;;0.80;0.80;;;9.40;1.00;;;;;;5039078;28;20206;-86
2023/12/24 09:43:57;;;;;;;0.70;0.70;;;9.30;1.00;;;;;;5037565;28;20172;-90
2023/12/24 09:46:23;;;;;;;0.70;0.70;;;9.30;1.00;;;;;;5040633;28;20214;-81
2023/12/24 09:48:49;;;;;;;0.80;0.80;;;9.30;1.00;;;;;;5025131;28;20291;-86
2023/12/24 09:51:15;;;;;;;0.70;0.70;;;9.30;1.00;;;;;;5032009;28;20257;-84
2023/12/24 09:53:48;;;;;;;0.70;0.70;;;9.40;1.00;;;;;;5034919;28;20234;-86
2023/12/24 09:56:15;;;;;;;0.60;0.60;;;9.40;1.00;;;;;;5035510;28;20203;-85
2023/12/24 09:58:41;;;;;;;0.70;0.70;;;9.40;1.00;;;;;;5036299;28;20650;-86
2023/12/24 10:01:07;;;;;;;0.70;0.70;;;9.30;1.00;;;;;;5035158;28;20186;-84
2023/12/24 10:03:33;;;;;;;0.83;0.83;;;9.40;1.00;;;;;;5034686;28;20176;-85
2023/12/24 10:05:59;;;;;;;0.63;0.63;;;9.60;1.00;;;;;;5036272;28;20191;-86
2023/12/24 10:08:25;;;;;;;0.70;0.70;;;9.50;1.00;;;;;;5035218;28;20204;-86
2023/12/24 10:10:51;;;;;;;0.60;0.60;;;9.50;1.00;;;;;;5036249;28;20236;-87
2023/12/24 10:13:23;;;;;;;0.70;0.70;;;9.50;1.00;;;;;;5035821;28;20263;-86
2023/12/24 10:16:02;;;;;;;0.63;0.63;;;9.60;1.00;;;;;;5034861;28;20191;-86
2023/12/24 10:18:28;;;;;;;0.70;0.70;;;9.90;1.00;;;;;;5035563;28;20245;-86
2023/12/24 10:21:13;;;;;;;0.70;0.70;;;9.60;1.00;;;;;;5035776;28;20660;-85
2023/12/24 10:23:38;;;;;;;0.70;0.70;;;9.70;1.00;;;;;;5037433;28;20572;-84
2023/12/24 10:26:06;;;;;;;0.80;0.80;;;9.70;99.90;;;;;;5036146;28;20195;-86
2023/12/24 10:28:51;;;;;;;0.60;0.60;;;9.80;99.90;;;;;;5035424;28;20758;-85
2023/12/24 10:31:17;;;;;;;0.60;0.60;;;9.70;1.00;;;;;;5033934;28;20549;-84
2023/12/24 10:33:43;;;;;;;0.53;0.53;;;9.70;1.00;;;;;;5034632;28;20255;-85
2023/12/24 10:36:09;;;;;;;0.60;0.60;;;9.80;1.00;;;;;;5033737;28;20235;-85
2023/12/24 10:38:38;;;;;;;0.63;0.63;;;9.70;99.90;;;;;;5033518;28;20180;-86
2023/12/24 10:41:08;;;;;;;0.50;0.50;;;9.70;99.90;;;;;;5034604;28;20263;-86
2023/12/24 10:43:33;;;;;;;0.60;0.60;;;9.70;99.90;;;;;;5034692;28;20649;-85
2023/12/24 10:45:59;;;;;;;0.50;0.50;;;9.70;99.90;;;;;;5034549;28;20200;-85
2023/12/24 10:48:24;;;;;;;0.50;0.50;;;9.80;76.10;;;;;;5035833;28;20203;-84
2023/12/24 10:50:50;;;;;;;0.50;0.50;;;9.80;1.00;;;;;;5049638;28;20239;-80
2023/12/24 10:53:16;;;;;;;0.60;0.60;;;9.80;1.00;;;;;;5059387;28;20226;-82
2023/12/24 10:55:59;;;;;;;0.60;0.60;;;9.80;1.00;;;;;;5054633;28;20203;-85
2023/12/24 10:58:58;;;;;;;0.57;0.57;;;9.90;1.00;;;;;;5036904;28;20188;-84
2023/12/24 11:01:24;;;;;;;0.60;0.60;;;9.90;1.00;;;;;;5036718;28;20191;-84
2023/12/24 11:03:52;;;;;;;0.60;0.60;;;9.90;1.00;;;;;;5036420;28;20182;-83
2023/12/24 11:06:40;;;;;;;0.50;0.50;;;9.90;1.00;;;;;;5035986;28;20207;-86
2023/12/24 11:09:19;;;;;;;0.60;0.60;;;9.90;1.00;;;;;;5029969;28;20223;-86
2023/12/24 11:11:54;;;;;;;0.53;0.53;;;10.00;1.00;;;;;;5035384;28;20176;-85
2023/12/24 11:14:45;;;;;;;0.70;0.70;;;10.10;99.90;;;;;;5036262;28;20771;-85
2023/12/24 11:17:39;;;;;;;0.50;0.50;;;10.10;99.90;;;;;;5036792;28;20192;-85
2023/12/24 11:20:26;;;;;;;0.60;0.60;;;10.30;1.00;;;;;;5035871;28;20234;-85
2023/12/24 11:23:24;;;;;;;0.53;0.53;;;10.50;1.00;;;;;;5036451;28;20545;-86
2023/12/24 11:25:51;;;;;;;0.60;0.60;;;10.50;99.90;;;;;;5037485;28;20195;-85
2023/12/24 11:28:23;;;;;;;0.50;0.50;;;10.50;1.00;;;;;;5036029;28;20231;-85
2023/12/24 11:30:51;;;;;;;0.50;0.50;;;10.40;1.00;;;;;;5033603;28;20218;-84
2023/12/24 11:33:32;;;;;;;0.57;0.57;;;10.30;1.00;;;;;;5035001;28;20180;-86
2023/12/24 11:36:02;;;;;;;0.40;0.40;;;10.30;99.90;;;;;;5034422;28;20192;-86
2023/12/24 11:38:40;;;;;;;0.60;0.60;;;10.30;1.00;;;;;;5034488;28;20186;-85
2023/12/24 11:41:16;;;;;;;0.60;0.60;;;10.20;1.00;;;;;;5035542;28;20568;-84
2023/12/24 11:43:58;;;;;;;0.60;0.60;;;10.10;1.00;;;;;;5035152;28;20172;-85
2023/12/24 11:46:25;;;;;;;0.60;0.60;;;10.10;1.00;;;;;;5032309;28;20200;-86
2023/12/24 11:48:55;;;;;;;0.60;0.60;;;10.10;1.00;;;;;;5033322;28;20632;-86
2023/12/24 11:51:26;;;;;;;0.60;0.60;;;10.10;1.00;;;;;;5036123;28;20172;-85
2023/12/24 11:54:05;;;;;;;0.70;0.70;;;10.10;99.90;;;;;;5027979;28;20188;-85
2023/12/24 11:56:31;;;;;;;0.60;0.60;;;10.10;1.00;;;;;;5014974;28;20211;-83
2023/12/24 11:59:01;;;;;;;0.60;0.60;;;10.30;1.00;;;;;;5014452;28;20172;-86
2023/12/24 12:01:32;;;;;;;0.60;0.60;;;10.20;99.90;;;;;;5015483;28;20196;-86
2023/12/24 12:04:04;;;;;;;0.60;0.60;;;10.20;1.00;;;;;;5016418;28;20180;-86
2023/12/24 12:06:35;;;;;;;0.60;0.60;;;10.20;99.90;;;;;;5014886;28;20748;-85
2023/12/24 12:09:09;;;;;;;0.60;0.60;;;10.20;99.90;;;;;;5016187;28;20226;-84
2023/12/24 12:11:35;;;;;;;0.63;0.63;;;10.20;99.90;;;;;;5015019;28;20165;-86
2023/12/24 12:14:01;;;;;;;0.60;0.60;;;10.40;99.90;;;;;;5014029;28;20168;-85
2023/12/24 12:16:27;;;;;;;0.60;0.60;;;10.60;1.00;;;;;;5020161;28;20192;-85
2023/12/24 12:18:53;;;;;;;0.60;0.60;;;10.60;80.30;;;;;;5017285;28;20665;-83
2023/12/24 12:21:19;;;;;;;0.57;0.57;;;10.50;99.90;;;;;;5035655;28;20184;-84
2023/12/24 12:23:45;;;;;;;0.60;0.60;;;10.60;99.90;;;;;;5047170;28;20566;-83
2023/12/24 12:26:10;;;;;;;0.53;0.53;;;10.70;1.00;;;;;;5051252;28;20192;-86
2023/12/24 12:28:36;;;;;;;0.50;0.50;;;10.60;99.90;;;;;;5035709;28;20211;-86
2023/12/24 12:31:02;;;;;;;0.70;0.70;;;10.60;86.80;;;;;;5034125;28;20210;-84
2023/12/24 12:33:27;;;;;;;0.50;0.50;;;10.70;1.00;;;;;;5034287;28;20645;-85
2023/12/24 12:35:54;;;;;;;0.60;0.60;;;10.70;1.00;;;;;;5035570;28;20200;-85
2023/12/24 12:38:20;;;;;;;0.57;0.57;;;10.50;97.60;;;;;;5035048;28;20819;-85
2023/12/24 12:40:46;;;;;;;0.60;0.60;;;10.40;99.90;;;;;;5036989;28;20251;-84
2023/12/24 12:43:12;;;;;;;0.50;0.50;;;10.50;1.00;;;;;;5035840;28;20183;-87
2023/12/24 12:45:40;;;;;;;0.70;0.70;;;10.30;1.00;;;;;;5052341;28;20186;-83
2023/12/24 12:48:11;;;;;;;0.50;0.50;;;10.40;1.00;;;;;;5037996;28;20212;-80
2023/12/24 12:50:37;;;;;;;0.60;0.60;;;10.40;99.90;;;;;;5047657;28;20172;-85
2023/12/24 12:53:04;;;;;;;0.60;0.60;;;10.30;1.00;;;;;;5038751;28;20176;-81
2023/12/24 12:55:30;;;;;;;0.63;0.63;;;10.30;1.00;;;;;;5038614;28;20672;-84
2023/12/24 12:57:56;;;;;;;0.70;0.70;;;10.20;1.00;;;;;;5038907;28;20175;-85
2023/12/24 13:00:23;;;;;;;0.53;0.53;;;10.20;1.00;;;;;;5047599;28;20239;-82
2023/12/24 13:02:49;;;;;;;0.60;0.60;;;10.20;99.90;;;;;;5045115;28;20200;-85